createdAt,value
2022-10-08T00:01:12.412Z,9.00
2022-10-08T00:03:43.305Z,9.00
2022-10-08T00:06:28.986Z,9.10
2022-10-08T00:09:02.211Z,9.20
2022-10-08T00:11:37.730Z,9.20
2022-10-08T00:14:05.321Z,9.20
2022-10-08T00:16:38.229Z,9.20
2022-10-08T00:19:13.476Z,9.20
2022-10-08T00:21:44.086Z,9.20
2022-10-08T00:24:16.455Z,9.20
2022-10-08T00:26:44.693Z,9.30
2022-10-08T00:29:13.927Z,9.30
2022-10-08T00:31:44.173Z,9.30
2022-10-08T00:34:17.764Z,9.30
2022-10-08T00:36:45.811Z,9.30
2022-10-08T00:39:17.874Z,9.30
2022-10-08T00:41:48.228Z,9.30
2022-10-08T00:44:54.403Z,9.30
2022-10-08T00:47:32.998Z,9.30
2022-10-08T00:50:05.443Z,9.30
2022-10-08T00:52:37.384Z,9.30
2022-10-08T00:55:07.053Z,9.30
2022-10-08T00:57:35.524Z,9.30
2022-10-08T01:00:10.003Z,9.30
2022-10-08T01:02:36.944Z,9.40
2022-10-08T01:05:06.532Z,9.40
2022-10-08T01:08:13.492Z,9.50
2022-10-08T01:10:52.194Z,9.50
2022-10-08T01:13:43.474Z,9.50
2022-10-08T01:16:27.644Z,9.50
2022-10-08T01:19:38.674Z,9.40
2022-10-08T01:22:14.477Z,9.40
2022-10-08T01:25:10.258Z,9.30
2022-10-08T01:27:41.612Z,9.30
2022-10-08T01:30:16.397Z,9.30
2022-10-08T01:33:12.153Z,9.30
2022-10-08T01:35:46.097Z,9.30
2022-10-08T01:38:17.662Z,9.30
2022-10-08T01:40:47.283Z,9.40
2022-10-08T01:43:17.358Z,9.40
2022-10-08T01:45:53.387Z,9.40
2022-10-08T01:48:31.803Z,9.50
2022-10-08T01:51:17.657Z,9.60
2022-10-08T01:53:47.259Z,9.60
2022-10-08T01:56:18.659Z,9.70
2022-10-08T01:59:17.452Z,9.80
2022-10-08T02:02:06.955Z,9.90
2022-10-08T02:04:33.687Z,10.00
2022-10-08T02:07:12.235Z,10.10
2022-10-08T02:10:05.095Z,10.20
2022-10-08T02:12:31.971Z,10.20
2022-10-08T02:15:00.166Z,10.20
2022-10-08T02:17:44.997Z,10.30
2022-10-08T02:20:43.867Z,10.30
2022-10-08T02:23:26.985Z,10.30
2022-10-08T02:26:02.257Z,10.40
2022-10-08T02:28:37.990Z,10.50
2022-10-08T02:31:31.268Z,10.50
2022-10-08T02:34:09.840Z,10.60
2022-10-08T02:36:40.672Z,10.60
2022-10-08T02:39:10.214Z,10.60
2022-10-08T02:41:48.579Z,10.60
2022-10-08T02:44:41.825Z,10.70
2022-10-08T02:47:13.635Z,10.70
2022-10-08T02:49:45.548Z,10.80
2022-10-08T02:52:14.444Z,10.80
2022-10-08T02:54:44.580Z,10.80
2022-10-08T02:57:21.168Z,10.80
2022-10-08T02:59:48.851Z,10.80
2022-10-08T03:02:22.586Z,10.80
2022-10-08T03:05:01.722Z,10.90
2022-10-08T03:07:30.955Z,10.90
2022-10-08T03:10:00.080Z,10.90
2022-10-08T03:12:26.670Z,10.90
2022-10-08T03:14:54.427Z,10.80
2022-10-08T03:17:32.902Z,10.80
2022-10-08T03:20:06.132Z,10.80
2022-10-08T03:22:34.002Z,10.80
2022-10-08T03:25:01.287Z,10.80
2022-10-08T03:27:28.195Z,10.80
2022-10-08T03:29:57.508Z,10.80
2022-10-08T03:32:25.247Z,10.80
2022-10-08T03:34:53.155Z,10.80
2022-10-08T03:37:20.588Z,10.90
2022-10-08T03:39:47.920Z,10.90
2022-10-08T03:42:14.517Z,10.90
2022-10-08T03:44:41.797Z,10.90
2022-10-08T03:47:08.422Z,10.90
2022-10-08T03:49:35.803Z,10.90
2022-10-08T03:52:02.395Z,10.90
2022-10-08T03:54:29.664Z,10.90
2022-10-08T03:56:56.264Z,10.90
2022-10-08T03:59:23.524Z,10.90
2022-10-08T04:01:50.204Z,11.00
2022-10-08T04:04:20.656Z,10.90
2022-10-08T04:06:49.716Z,10.90
2022-10-08T04:09:17.053Z,10.90
2022-10-08T04:11:43.625Z,10.90
2022-10-08T04:14:10.933Z,10.90
2022-10-08T04:16:37.552Z,10.90
2022-10-08T04:19:04.837Z,10.90
2022-10-08T04:21:31.638Z,10.90
2022-10-08T04:23:58.945Z,10.90
2022-10-08T04:26:25.567Z,10.90
2022-10-08T04:28:52.993Z,10.90
2022-10-08T04:31:23.034Z,10.90
2022-10-08T04:33:51.773Z,10.90
2022-10-08T04:36:23.650Z,10.90
2022-10-08T04:38:51.241Z,10.80
2022-10-08T04:41:20.206Z,10.80
2022-10-08T04:43:47.878Z,10.90
2022-10-08T04:46:16.937Z,10.90
2022-10-08T04:48:53.507Z,10.90
2022-10-08T04:51:23.131Z,10.90
2022-10-08T04:53:51.307Z,10.90
2022-10-08T04:56:20.548Z,10.90
2022-10-08T04:58:48.405Z,10.80
2022-10-08T05:01:18.439Z,10.80
2022-10-08T05:03:48.636Z,10.80
2022-10-08T05:06:17.096Z,10.80
2022-10-08T05:08:45.676Z,10.80
2022-10-08T05:11:12.790Z,10.80
2022-10-08T05:13:40.742Z,10.80
2022-10-08T05:16:10.116Z,10.80
2022-10-08T05:18:38.704Z,10.80
2022-10-08T05:21:13.397Z,10.90
2022-10-08T05:23:42.977Z,10.90
2022-10-08T05:26:16.340Z,10.80
2022-10-08T05:28:45.212Z,10.80
2022-10-08T05:31:11.879Z,10.80
2022-10-08T05:33:39.273Z,10.80
2022-10-08T05:36:07.796Z,10.80
2022-10-08T05:38:36.230Z,10.80
2022-10-08T05:41:11.935Z,10.70
2022-10-08T05:43:40.149Z,10.80
2022-10-08T05:46:07.408Z,10.80
2022-10-08T05:48:34.967Z,10.80
2022-10-08T05:51:13.649Z,10.80
2022-10-08T05:53:43.082Z,10.70
2022-10-08T05:56:11.912Z,10.60
2022-10-08T05:58:40.302Z,10.60
2022-10-08T06:01:11.881Z,10.60
2022-10-08T06:03:39.254Z,10.60
2022-10-08T06:06:08.596Z,10.70
2022-10-08T06:08:37.127Z,10.70
2022-10-08T06:11:05.454Z,10.80
2022-10-08T06:13:32.135Z,10.80
2022-10-08T06:16:00.519Z,10.90
2022-10-08T06:18:29.463Z,10.90
2022-10-08T06:20:57.038Z,11.00
2022-10-08T06:23:24.340Z,11.00
2022-10-08T06:25:51.571Z,11.00
2022-10-08T06:28:18.224Z,11.10
2022-10-08T06:30:45.559Z,11.20
2022-10-08T06:33:12.371Z,11.20
2022-10-08T06:35:39.611Z,11.30
2022-10-08T06:38:06.203Z,11.30
2022-10-08T06:40:39.212Z,11.40
2022-10-08T06:43:18.096Z,11.50
2022-10-08T06:45:46.752Z,11.50
2022-10-08T06:48:13.692Z,11.50
2022-10-08T06:50:41.860Z,11.50
2022-10-08T06:53:10.098Z,11.40
2022-10-08T06:55:37.490Z,11.40
2022-10-08T06:58:05.179Z,11.50
2022-10-08T07:00:33.154Z,11.60
2022-10-08T07:02:59.854Z,11.70
2022-10-08T07:05:27.364Z,11.80
2022-10-08T07:07:53.956Z,11.90
2022-10-08T07:10:21.262Z,11.90
2022-10-08T07:12:48.129Z,12.00
2022-10-08T07:15:15.686Z,12.00
2022-10-08T07:17:42.438Z,12.10
2022-10-08T07:20:09.930Z,12.20
2022-10-08T07:22:36.529Z,12.30
2022-10-08T07:25:03.783Z,12.50
2022-10-08T07:27:30.341Z,12.70
2022-10-08T07:29:57.603Z,12.90
2022-10-08T07:32:24.190Z,13.00
2022-10-08T07:34:51.410Z,13.10
2022-10-08T07:37:18.059Z,13.20
2022-10-08T07:39:45.857Z,13.20
2022-10-08T07:42:12.428Z,13.20
2022-10-08T07:44:39.742Z,13.20
2022-10-08T07:47:08.014Z,13.20
2022-10-08T07:49:35.408Z,13.20
2022-10-08T07:52:01.995Z,13.30
2022-10-08T07:54:29.269Z,13.30
2022-10-08T07:56:55.850Z,13.40
2022-10-08T07:59:23.239Z,13.40
2022-10-08T08:01:49.895Z,13.50
2022-10-08T08:04:17.200Z,13.60
2022-10-08T08:06:49.308Z,13.70
2022-10-08T08:09:16.989Z,13.80
2022-10-08T08:11:43.592Z,13.90
2022-10-08T08:14:11.027Z,14.10
2022-10-08T08:16:38.867Z,14.10
2022-10-08T08:19:06.589Z,14.10
2022-10-08T08:21:36.347Z,14.00
2022-10-08T08:24:06.525Z,14.10
2022-10-08T08:26:35.785Z,14.20
2022-10-08T08:29:15.067Z,14.40
2022-10-08T08:31:46.806Z,14.50
2022-10-08T08:34:16.993Z,14.60
2022-10-08T08:36:46.122Z,14.60
2022-10-08T08:39:22.095Z,14.60
2022-10-08T08:42:01.557Z,14.50
2022-10-08T08:44:39.314Z,14.60
2022-10-08T08:47:20.026Z,14.80
2022-10-08T08:49:56.422Z,15.30
2022-10-08T08:52:26.296Z,16.00
2022-10-08T08:54:55.218Z,16.60
2022-10-08T08:57:37.350Z,16.90
2022-10-08T09:00:22.390Z,16.90
2022-10-08T09:03:01.009Z,17.10
2022-10-08T09:05:31.808Z,16.60
2022-10-08T09:08:17.634Z,16.70
2022-10-08T09:10:57.642Z,16.50
2022-10-08T09:13:31.978Z,16.40
2022-10-08T09:15:59.499Z,16.40
2022-10-08T09:18:28.195Z,16.70
2022-10-08T09:20:55.440Z,16.70
2022-10-08T09:23:24.439Z,16.70
2022-10-08T09:26:20.678Z,16.80
2022-10-08T09:28:48.701Z,17.00
2022-10-08T09:31:31.552Z,16.90
2022-10-08T09:34:01.367Z,16.70
2022-10-08T09:36:33.859Z,16.90
2022-10-08T09:39:04.557Z,16.90
2022-10-08T09:41:31.650Z,16.80
2022-10-08T09:44:18.705Z,16.60
2022-10-08T09:46:46.142Z,16.20
2022-10-08T09:49:28.692Z,15.90
2022-10-08T09:51:58.135Z,15.60
2022-10-08T09:54:30.479Z,15.50
2022-10-08T09:56:59.723Z,15.40
2022-10-08T09:59:30.262Z,15.30
2022-10-08T10:01:58.007Z,15.50
2022-10-08T10:04:35.607Z,15.90
2022-10-08T10:07:03.624Z,16.30
2022-10-08T10:09:50.848Z,16.70
2022-10-08T10:12:24.964Z,16.70
2022-10-08T10:15:02.994Z,16.50
2022-10-08T10:17:55.834Z,16.30
2022-10-08T10:20:37.877Z,15.90
2022-10-08T10:23:37.711Z,15.50
2022-10-08T10:26:16.693Z,15.10
2022-10-08T10:28:50.318Z,14.80
2022-10-08T10:31:33.429Z,14.50
2022-10-08T10:34:18.949Z,14.30
2022-10-08T10:37:11.959Z,14.20
2022-10-08T10:39:44.338Z,14.00
2022-10-08T10:42:20.862Z,14.10
2022-10-08T10:45:02.257Z,14.40
2022-10-08T10:47:32.942Z,14.90
2022-10-08T10:50:03.861Z,15.30
2022-10-08T10:53:03.610Z,15.70
2022-10-08T10:55:37.777Z,16.10
2022-10-08T10:58:28.863Z,16.50
2022-10-08T11:01:10.355Z,16.80
2022-10-08T11:04:03.686Z,17.00
2022-10-08T11:06:52.239Z,17.30
2022-10-08T11:09:30.106Z,17.40
2022-10-08T11:12:03.702Z,17.10
2022-10-08T11:25:26.368Z,17.20
2022-10-08T11:28:10.304Z,17.40
2022-10-08T11:30:47.314Z,17.50
2022-10-08T11:33:15.728Z,17.60
2022-10-08T11:35:56.625Z,17.70
2022-10-08T11:38:35.767Z,17.90
2022-10-08T11:41:23.680Z,17.90
2022-10-08T11:44:02.425Z,18.00
2022-10-08T11:46:32.757Z,18.10
2022-10-08T11:49:11.545Z,18.50
2022-10-08T11:51:44.025Z,18.80
2022-10-08T11:54:31.304Z,18.80
2022-10-08T11:57:12.902Z,19.20
2022-10-08T11:59:43.993Z,19.60
2022-10-08T12:02:31.808Z,19.60
2022-10-08T12:05:17.453Z,20.10
2022-10-08T12:07:57.077Z,20.40
2022-10-08T12:10:39.089Z,20.20
2022-10-08T12:13:28.890Z,19.90
2022-10-08T12:16:04.919Z,19.60
2022-10-08T12:18:41.330Z,19.10
2022-10-08T12:21:17.582Z,18.60
2022-10-08T12:23:44.908Z,18.20
2022-10-08T12:26:15.188Z,17.70
2022-10-08T12:28:47.464Z,17.30
2022-10-08T12:31:19.993Z,16.90
2022-10-08T12:34:12.983Z,16.50
2022-10-08T12:36:46.251Z,16.40
2022-10-08T12:39:18.467Z,16.60
2022-10-08T12:42:04.208Z,16.90
2022-10-08T12:44:41.111Z,17.10
2022-10-08T12:47:22.635Z,17.40
2022-10-08T12:50:00.521Z,17.60
2022-10-08T12:52:32.671Z,17.70
2022-10-08T12:55:01.932Z,17.70
2022-10-08T12:57:33.676Z,17.50
2022-10-08T13:00:26.232Z,17.40
2022-10-08T13:03:06.320Z,17.10
2022-10-08T13:05:39.935Z,17.10
2022-10-08T13:08:31.665Z,17.10
2022-10-08T13:11:02.084Z,17.20
2022-10-08T13:13:40.644Z,17.30
2022-10-08T13:16:12.188Z,17.50
2022-10-08T13:18:42.034Z,17.40
2022-10-08T13:21:31.504Z,17.20
2022-10-08T13:23:59.120Z,16.90
2022-10-08T13:26:40.029Z,16.80
2022-10-08T13:29:22.096Z,16.90
2022-10-08T13:32:11.427Z,16.90
2022-10-08T13:34:41.397Z,17.10
2022-10-08T13:37:22.134Z,17.30
2022-10-08T13:39:54.150Z,17.40
2022-10-08T13:42:23.339Z,17.50
2022-10-08T13:44:51.726Z,17.60
2022-10-08T13:47:21.042Z,17.60
2022-10-08T13:49:49.160Z,17.80
2022-10-08T13:52:21.360Z,17.80
2022-10-08T13:54:49.878Z,17.80
2022-10-08T13:57:16.460Z,17.90
2022-10-08T13:59:43.711Z,17.70
2022-10-08T14:02:13.678Z,17.40
2022-10-08T14:04:41.222Z,17.00
2022-10-08T14:07:24.416Z,16.60
2022-10-08T14:09:52.403Z,16.10
2022-10-08T14:12:26.208Z,15.80
2022-10-08T14:14:54.108Z,15.50
2022-10-08T14:17:21.003Z,15.50
2022-10-08T14:19:49.161Z,15.70
2022-10-08T14:22:15.832Z,15.80
2022-10-08T14:24:43.453Z,15.90
2022-10-08T14:27:10.165Z,15.80
2022-10-08T14:29:37.765Z,15.80
2022-10-08T14:32:05.635Z,15.80
2022-10-08T14:34:32.892Z,15.70
2022-10-08T14:36:59.739Z,15.70
2022-10-08T14:39:27.601Z,15.60
2022-10-08T14:41:54.416Z,15.50
2022-10-08T14:44:24.545Z,15.50
2022-10-08T14:46:54.790Z,15.40
2022-10-08T14:49:22.495Z,15.40
2022-10-08T14:51:49.310Z,15.30
2022-10-08T14:54:18.126Z,15.30
2022-10-08T14:56:45.829Z,15.10
2022-10-08T14:59:12.809Z,15.00
2022-10-08T15:01:40.699Z,14.90
2022-10-08T15:04:07.973Z,14.80
2022-10-08T15:06:34.752Z,14.70
2022-10-08T15:09:02.674Z,14.60
2022-10-08T15:11:29.331Z,14.50
2022-10-08T15:13:57.502Z,14.40
2022-10-08T15:16:24.372Z,14.30
2022-10-08T15:18:54.310Z,14.20
2022-10-08T15:21:21.466Z,14.10
2022-10-08T15:23:48.156Z,14.10
2022-10-08T15:26:17.582Z,13.90
2022-10-08T15:28:46.490Z,13.90
2022-10-08T15:31:18.247Z,13.80
2022-10-08T15:33:47.158Z,13.80
2022-10-08T15:36:25.938Z,13.70
2022-10-08T15:39:02.176Z,13.70
2022-10-08T15:41:30.803Z,13.60
2022-10-08T15:44:17.875Z,13.60
2022-10-08T15:46:49.923Z,13.50
2022-10-08T15:49:16.946Z,13.50
2022-10-08T15:51:43.601Z,13.50
2022-10-08T15:54:10.525Z,13.50
2022-10-08T15:56:37.177Z,13.40
2022-10-08T15:59:04.542Z,13.40
2022-10-08T16:01:31.256Z,13.40
2022-10-08T16:03:59.852Z,13.30
2022-10-08T16:06:31.708Z,13.30
2022-10-08T16:08:58.908Z,13.20
2022-10-08T16:11:31.436Z,13.20
2022-10-08T16:14:11.890Z,13.20
2022-10-08T16:16:39.510Z,13.10
2022-10-08T16:19:10.888Z,13.10
2022-10-08T16:21:38.330Z,13.00
2022-10-08T16:24:06.831Z,12.90
2022-10-08T16:26:35.324Z,12.80
2022-10-08T16:29:05.223Z,12.80
2022-10-08T16:31:33.463Z,12.70
2022-10-08T16:34:03.618Z,12.60
2022-10-08T16:36:33.618Z,12.50
2022-10-08T16:39:01.334Z,12.50
2022-10-08T16:41:30.053Z,12.40
2022-10-08T16:43:59.018Z,12.30
2022-10-08T16:46:31.169Z,12.20
2022-10-08T16:49:08.213Z,12.10
2022-10-08T16:51:37.065Z,12.10
2022-10-08T16:54:10.203Z,12.00
2022-10-08T16:56:38.728Z,11.90
2022-10-08T16:59:15.879Z,11.80
2022-10-08T17:01:44.917Z,11.80
2022-10-08T17:04:14.012Z,11.70
2022-10-08T17:06:41.091Z,11.60
2022-10-08T17:09:08.436Z,11.50
2022-10-08T17:11:36.668Z,11.40
2022-10-08T17:14:04.732Z,11.40
2022-10-08T17:16:31.943Z,11.30
2022-10-08T17:19:00.187Z,11.20
2022-10-08T17:21:28.480Z,11.10
2022-10-08T17:23:59.708Z,11.00
2022-10-08T17:26:27.808Z,11.00
2022-10-08T17:28:55.687Z,10.90
2022-10-08T17:31:25.320Z,10.80
2022-10-08T17:33:52.829Z,10.80
2022-10-08T17:36:22.791Z,10.70
2022-10-08T17:38:57.385Z,10.60
2022-10-08T17:41:33.713Z,10.50
2022-10-08T17:44:05.554Z,10.50
2022-10-08T17:46:35.030Z,10.40
2022-10-08T17:49:05.201Z,10.30
2022-10-08T17:51:36.112Z,10.30
2022-10-08T17:54:07.078Z,10.30
2022-10-08T17:56:34.303Z,10.20
2022-10-08T17:59:01.742Z,10.20
2022-10-08T18:01:32.741Z,10.10
2022-10-08T18:04:02.793Z,10.10
2022-10-08T18:06:34.722Z,10.00
2022-10-08T18:09:06.086Z,10.00
2022-10-08T18:11:35.454Z,10.00
2022-10-08T18:14:03.799Z,10.00
2022-10-08T18:16:31.536Z,9.90
2022-10-08T18:18:58.991Z,9.90
2022-10-08T18:21:26.063Z,9.80
2022-10-08T18:23:53.515Z,9.80
2022-10-08T18:26:21.947Z,9.70
2022-10-08T18:28:53.172Z,9.70
2022-10-08T18:31:21.338Z,9.60
2022-10-08T18:33:52.046Z,9.60
2022-10-08T18:36:21.834Z,9.50
2022-10-08T18:38:57.883Z,9.50
2022-10-08T18:41:36.712Z,9.40
2022-10-08T18:44:05.915Z,9.40
2022-10-08T18:46:36.927Z,9.40
2022-10-08T18:49:05.496Z,9.30
2022-10-08T18:51:33.685Z,9.20
2022-10-08T18:54:02.374Z,9.20
2022-10-08T18:56:35.417Z,9.10
2022-10-08T18:59:05.432Z,9.10
2022-10-08T19:01:40.114Z,9.00
2022-10-08T19:04:09.120Z,9.00
2022-10-08T19:06:38.014Z,8.90
2022-10-08T19:09:06.377Z,8.90
2022-10-08T19:11:39.568Z,8.80
2022-10-08T19:14:12.397Z,8.80
2022-10-08T19:16:40.413Z,8.80
2022-10-08T19:19:11.858Z,8.80
2022-10-08T19:21:38.916Z,8.80
2022-10-08T19:24:07.769Z,8.80
2022-10-08T19:26:34.447Z,8.70
2022-10-08T19:29:01.811Z,8.60
2022-10-08T19:31:30.694Z,8.60
2022-10-08T19:34:02.582Z,8.60
2022-10-08T19:36:32.263Z,8.60
2022-10-08T19:39:02.042Z,8.50
2022-10-08T19:41:30.274Z,8.50
2022-10-08T19:43:57.906Z,8.50
2022-10-08T19:46:25.805Z,8.40
2022-10-08T19:48:58.514Z,8.40
2022-10-08T19:51:26.679Z,8.40
2022-10-08T19:53:54.298Z,8.30
2022-10-08T19:56:21.927Z,8.30
2022-10-08T19:58:50.605Z,8.20
2022-10-08T20:01:25.625Z,8.20
2022-10-08T20:03:55.713Z,8.10
2022-10-08T20:06:25.138Z,8.10
2022-10-08T20:08:54.610Z,8.00
2022-10-08T20:11:21.974Z,8.00
2022-10-08T20:13:51.001Z,8.00
2022-10-08T20:16:20.693Z,7.90
2022-10-08T20:18:56.828Z,7.90
2022-10-08T20:21:23.444Z,7.90
2022-10-08T20:23:50.748Z,7.80
2022-10-08T20:26:20.140Z,7.80
2022-10-08T20:28:50.683Z,7.80
2022-10-08T20:31:22.898Z,7.80
2022-10-08T20:33:56.894Z,7.80
2022-10-08T20:36:24.054Z,7.70
2022-10-08T20:38:51.370Z,7.70
2022-10-08T20:41:19.618Z,7.70
2022-10-08T20:43:46.910Z,7.70
2022-10-08T20:46:15.193Z,7.60
2022-10-08T20:48:43.834Z,7.60
2022-10-08T20:51:19.912Z,7.60
2022-10-08T20:53:48.883Z,7.50
2022-10-08T20:56:15.759Z,7.50
2022-10-08T20:58:43.315Z,7.40
2022-10-08T21:01:12.615Z,7.40
2022-10-08T21:03:43.909Z,7.40
2022-10-08T21:06:19.355Z,7.30
2022-10-08T21:08:48.430Z,7.30
2022-10-08T21:11:17.700Z,7.20
2022-10-08T21:13:47.591Z,7.20
2022-10-08T21:16:29.390Z,7.20
2022-10-08T21:19:06.656Z,7.10
2022-10-08T21:21:34.652Z,7.10
2022-10-08T21:24:02.749Z,7.00
2022-10-08T21:26:32.070Z,7.00
2022-10-08T21:29:02.310Z,7.00
2022-10-08T21:31:31.482Z,7.00
2022-10-08T21:33:59.061Z,6.90
2022-10-08T21:36:35.308Z,6.90
2022-10-08T21:39:03.310Z,6.90
2022-10-08T21:41:33.319Z,6.80
2022-10-08T21:44:02.134Z,6.80
2022-10-08T21:46:32.049Z,6.80
2022-10-08T21:49:20.572Z,6.80
2022-10-08T21:51:47.293Z,6.70
2022-10-08T21:54:15.567Z,6.70
2022-10-08T21:56:43.713Z,6.70
2022-10-08T21:59:13.309Z,6.70
2022-10-08T22:01:49.288Z,6.70
2022-10-08T22:04:19.886Z,6.70
2022-10-08T22:06:49.769Z,6.70
2022-10-08T22:09:22.434Z,6.70
2022-10-08T22:11:50.798Z,6.70
2022-10-08T22:14:18.505Z,6.60
2022-10-08T22:16:46.539Z,6.60
2022-10-08T22:19:13.832Z,6.60
2022-10-08T22:21:41.147Z,6.60
2022-10-08T22:24:07.919Z,6.60
2022-10-08T22:26:37.914Z,6.50
2022-10-08T22:29:05.974Z,6.40
2022-10-08T22:31:33.752Z,6.40
2022-10-08T22:34:00.555Z,6.40
2022-10-08T22:36:30.459Z,6.40
2022-10-08T22:38:58.231Z,6.40
2022-10-08T22:41:31.344Z,6.40
2022-10-08T22:43:59.115Z,6.40
2022-10-08T22:46:34.118Z,6.30
2022-10-08T22:49:03.259Z,6.30
2022-10-08T22:51:31.101Z,6.30
2022-10-08T22:53:58.508Z,6.30
2022-10-08T22:56:28.756Z,6.20
2022-10-08T22:58:55.991Z,6.20
2022-10-08T23:01:25.428Z,6.20
2022-10-08T23:03:53.099Z,6.20
2022-10-08T23:06:20.300Z,6.20
2022-10-08T23:08:48.643Z,6.00
2022-10-08T23:11:16.784Z,6.00
2022-10-08T23:13:46.676Z,6.00
2022-10-08T23:16:15.321Z,6.00
2022-10-08T23:18:44.916Z,6.00
2022-10-08T23:21:17.553Z,6.00
2022-10-08T23:23:45.681Z,5.90
2022-10-08T23:26:13.708Z,6.00
2022-10-08T23:28:41.476Z,5.90
2022-10-08T23:31:15.432Z,5.90
2022-10-08T23:33:44.523Z,5.90
2022-10-08T23:36:14.312Z,5.90
2022-10-08T23:38:41.536Z,5.90
2022-10-08T23:41:13.157Z,5.90
2022-10-08T23:43:42.305Z,5.90
2022-10-08T23:46:12.073Z,5.90
2022-10-08T23:48:38.986Z,5.90
2022-10-08T23:51:07.166Z,5.90
2022-10-08T23:53:34.733Z,5.90
2022-10-08T23:56:02.487Z,5.90
2022-10-08T23:58:29.356Z,5.80
